Time,TemperatureF,DewpointF,PressureIn,WindDirection,WindDirectionDegrees,WindSpeedMPH,WindSpeedGustMPH,Humidity,HourlyPrecipIn,Conditions,Clouds,dailyrainin,SoftwareType,DateUTC
2013-01-27 00:00:00,37.1,36.6,30.08,ESE,121,0.0,2.0,98,0.00,,,0.22,Wunderground v.1.15,2013-01-27 08:00:00,
2013-01-27 00:04:00,37.1,36.6,30.09,WNW,295,2.0,4.0,98,0.00,,,0.23,Wunderground v.1.15,2013-01-27 08:04:00,
2013-01-27 00:09:00,37.1,36.6,30.09,WNW,296,3.0,3.0,98,0.00,,,0.23,Wunderground v.1.15,2013-01-27 08:09:00,
2013-01-27 00:14:00,37.2,36.7,30.09,West,260,2.0,3.0,98,0.09,,,0.01,Wunderground v.1.15,2013-01-27 08:14:00,
2013-01-27 00:20:00,37.2,36.7,30.09,West,260,2.0,2.0,98,0.07,,,0.01,Wunderground v.1.15,2013-01-27 08:20:00,
2013-01-27 00:25:00,37.2,36.7,30.09,West,260,0.0,2.0,98,0.04,,,0.01,Wunderground v.1.15,2013-01-27 08:25:00,
2013-01-27 00:30:00,37.2,36.7,30.09,SSE,153,1.0,4.0,98,0.00,,,0.01,Wunderground v.1.15,2013-01-27 08:30:00,
2013-01-27 00:35:00,37.2,36.7,30.08,SSE,153,1.0,4.0,98,0.00,,,0.01,Wunderground v.1.15,2013-01-27 08:35:00,
2013-01-27 00:40:00,37.4,36.9,30.08,ESE,104,1.0,3.0,98,0.00,,,0.01,Wunderground v.1.15,2013-01-27 08:40:00,
2013-01-27 00:45:00,37.4,36.9,30.08,East,86,1.0,3.0,98,0.00,,,0.01,Wunderground v.1.15,2013-01-27 08:45:00,
2013-01-27 00:50:00,37.2,36.7,30.08,East,86,1.0,1.0,98,0.00,,,0.01,Wunderground v.1.15,2013-01-27 08:50:00,
2013-01-27 00:55:00,37.1,36.6,30.08,East,86,1.0,1.0,98,0.00,,,0.01,Wunderground v.1.15,2013-01-27 08:55:00,
2013-01-27 01:00:00,37.0,36.5,30.08,East,86,1.0,2.0,98,0.00,,,0.01,Wunderground v.1.15,2013-01-27 09:00:00,
2013-01-27 01:05:00,36.9,36.4,30.08,ENE,74,2.0,2.0,98,0.00,,,0.01,Wunderground v.1.15,2013-01-27 09:05:00,
2013-01-27 01:10:00,36.8,36.3,30.08,ENE,74,1.0,1.0,98,0.00,,,0.01,Wunderground v.1.15,2013-01-27 09:10:00,
2013-01-27 01:15:00,36.8,36.3,30.08,ENE,74,1.0,1.0,98,0.00,,,0.01,Wunderground v.1.15,2013-01-27 09:15:00,
2013-01-27 01:20:00,36.8,36.3,30.08,ENE,74,0.0,0.0,98,0.00,,,0.01,Wunderground v.1.15,2013-01-27 09:20:00,
2013-01-27 01:25:00,36.9,36.4,30.08,SE,137,1.0,2.0,98,0.00,,,0.01,Wunderground v.1.15,2013-01-27 09:25:00,
2013-01-27 01:30:00,36.9,36.4,30.08,SE,137,1.0,1.0,98,0.00,,,0.01,Wunderground v.1.15,2013-01-27 09:30:00,
2013-01-27 01:35:00,36.9,36.4,30.08,SE,137,1.0,1.0,98,0.00,,,0.01,Wunderground v.1.15,2013-01-27 09:35:00,
2013-01-27 01:40:00,36.9,36.4,30.08,SE,137,0.0,0.0,98,0.00,,,0.01,Wunderground v.1.15,2013-01-27 09:40:00,
2013-01-27 01:45:00,36.9,36.4,30.09,West,281,1.0,2.0,98,0.00,,,0.01,Wunderground v.1.15,2013-01-27 09:45:00,
2013-01-27 01:50:00,36.9,36.4,30.09,WNW,282,2.0,2.0,98,0.00,,,0.02,Wunderground v.1.15,2013-01-27 09:50:00,
2013-01-27 02:00:00,36.9,36.4,30.09,WNW,300,1.0,1.0,98,0.08,,,0.03,Wunderground v.1.15,2013-01-27 10:00:00,
2013-01-27 02:05:00,36.9,36.4,30.09,WNW,299,0.0,1.0,98,0.05,,,0.03,Wunderground v.1.15,2013-01-27 10:05:00,
2013-01-27 02:10:00,36.9,36.4,30.09,SSW,200,1.0,1.0,98,0.04,,,0.04,Wunderground v.1.15,2013-01-27 10:10:00,
2013-01-27 02:15:00,37.0,36.5,30.09,SSW,200,2.0,3.0,98,0.04,,,0.04,Wunderground v.1.15,2013-01-27 10:15:00,
2013-01-27 02:20:00,37.0,36.5,30.09,South,184,2.0,2.0,98,0.04,,,0.04,Wunderground v.1.15,2013-01-27 10:20:00,
2013-01-27 02:25:00,37.0,36.5,30.09,South,183,2.0,2.0,98,0.00,,,0.04,Wunderground v.1.15,2013-01-27 10:25:00,
2013-01-27 02:30:00,36.9,36.4,30.09,South,183,1.0,1.0,98,0.00,,,0.04,Wunderground v.1.15,2013-01-27 10:30:00,
2013-01-27 02:35:00,36.8,36.3,30.10,South,183,0.0,1.0,98,0.00,,,0.04,Wunderground v.1.15,2013-01-27 10:35:00,
2013-01-27 02:40:00,36.7,36.2,30.10,South,171,1.0,3.0,98,0.00,,,0.04,Wunderground v.1.15,2013-01-27 10:40:00,
2013-01-27 02:45:00,36.6,36.1,30.10,South,171,2.0,3.0,98,0.00,,,0.04,Wunderground v.1.15,2013-01-27 10:45:00,
2013-01-27 02:50:00,36.6,36.1,30.10,South,171,1.0,1.0,98,0.00,,,0.04,Wunderground v.1.15,2013-01-27 10:50:00,
2013-01-27 02:55:00,36.6,36.1,30.10,South,171,0.0,1.0,98,0.00,,,0.04,Wunderground v.1.15,2013-01-27 10:55:00,
2013-01-27 03:00:00,36.6,36.1,30.09,South,171,1.0,1.0,98,0.00,,,0.04,Wunderground v.1.15,2013-01-27 11:00:00,
2013-01-27 03:05:00,36.5,36.0,30.09,South,171,1.0,1.0,98,0.00,,,0.04,Wunderground v.1.15,2013-01-27 11:05:00,
2013-01-27 03:10:00,36.5,36.0,30.09,South,171,0.0,1.0,98,0.00,,,0.04,Wunderground v.1.15,2013-01-27 11:10:00,
2013-01-27 03:15:00,36.6,36.1,30.09,South,171,1.0,2.0,98,0.00,,,0.04,Wunderground v.1.15,2013-01-27 11:15:00,
2013-01-27 03:20:00,36.5,36.0,30.09,South,171,2.0,2.0,98,0.00,,,0.04,Wunderground v.1.15,2013-01-27 11:20:00,
2013-01-27 03:25:00,36.4,35.9,30.09,South,171,2.0,2.0,98,0.00,,,0.04,Wunderground v.1.15,2013-01-27 11:25:00,
2013-01-27 03:30:00,36.4,35.9,30.09,South,171,2.0,3.0,98,0.00,,,0.04,Wunderground v.1.15,2013-01-27 11:30:00,
2013-01-27 03:35:00,36.2,35.7,30.09,South,171,1.0,3.0,98,0.00,,,0.04,Wunderground v.1.15,2013-01-27 11:35:00,
2013-01-27 03:40:00,36.2,35.7,30.09,South,171,0.0,0.0,98,0.00,,,0.04,Wunderground v.1.15,2013-01-27 11:40:00,
2013-01-27 03:45:00,36.2,35.7,30.09,South,171,0.0,2.0,98,0.00,,,0.04,Wunderground v.1.15,2013-01-27 11:45:00,
2013-01-27 03:50:00,36.2,35.7,30.09,South,171,1.0,1.0,98,0.00,,,0.04,Wunderground v.1.15,2013-01-27 11:50:00,
2013-01-27 03:55:00,36.3,35.8,30.09,South,171,1.0,1.0,98,0.00,,,0.04,Wunderground v.1.15,2013-01-27 11:55:00,
2013-01-27 04:00:00,36.3,35.8,30.09,WNW,303,1.0,2.0,98,0.00,,,0.04,Wunderground v.1.15,2013-01-27 12:00:00,
2013-01-27 04:05:00,36.1,35.6,30.09,WNW,303,1.0,2.0,98,0.00,,,0.04,Wunderground v.1.15,2013-01-27 12:05:00,
2013-01-27 04:10:00,36.0,35.5,30.10,WNW,303,1.0,1.0,98,0.00,,,0.04,Wunderground v.1.15,2013-01-27 12:10:00,
2013-01-27 04:15:00,35.8,35.3,30.10,WNW,303,0.0,1.0,98,0.00,,,0.04,Wunderground v.1.15,2013-01-27 12:15:00,
2013-01-27 04:20:00,35.9,35.4,30.10,WNW,303,0.0,0.0,98,0.00,,,0.04,Wunderground v.1.15,2013-01-27 12:20:00,
2013-01-27 04:25:00,35.9,35.4,30.10,WNW,303,0.0,1.0,98,0.00,,,0.04,Wunderground v.1.15,2013-01-27 12:25:00,
2013-01-27 04:30:00,35.8,35.3,30.10,WNW,303,0.0,0.0,98,0.00,,,0.04,Wunderground v.1.15,2013-01-27 12:30:00,
2013-01-27 04:35:00,35.8,35.3,30.10,WNW,303,0.0,1.0,98,0.00,,,0.04,Wunderground v.1.15,2013-01-27 12:35:00,
2013-01-27 04:40:00,35.8,35.3,30.09,WNW,303,0.0,2.0,98,0.00,,,0.04,Wunderground v.1.15,2013-01-27 12:40:00,
2013-01-27 04:45:00,35.6,35.1,30.09,NW,311,1.0,2.0,98,0.00,,,0.04,Wunderground v.1.15,2013-01-27 12:45:00,
2013-01-27 04:50:00,35.5,35.0,30.09,NW,311,1.0,1.0,98,0.00,,,0.04,Wunderground v.1.15,2013-01-27 12:50:00,
2013-01-27 04:55:00,35.6,35.1,30.09,NW,311,1.0,1.0,98,0.00,,,0.04,Wunderground v.1.15,2013-01-27 12:55:00,
2013-01-27 05:00:00,35.7,35.2,30.10,WSW,242,1.0,1.0,98,0.00,,,0.04,Wunderground v.1.15,2013-01-27 13:00:00,
2013-01-27 05:05:00,35.8,35.3,30.10,WSW,242,1.0,1.0,98,0.00,,,0.04,Wunderground v.1.15,2013-01-27 13:05:00,
2013-01-27 05:10:00,35.7,35.2,30.10,WSW,242,0.0,0.0,98,0.00,,,0.04,Wunderground v.1.15,2013-01-27 13:10:00,
2013-01-27 05:15:00,35.8,35.3,30.10,WSW,242,0.0,1.0,98,0.00,,,0.04,Wunderground v.1.15,2013-01-27 13:15:00,
2013-01-27 05:20:00,35.8,35.3,30.10,WSW,242,1.0,3.0,98,0.00,,,0.04,Wunderground v.1.15,2013-01-27 13:20:00,
2013-01-27 05:25:00,35.9,35.4,30.10,WSW,242,2.0,3.0,98,0.00,,,0.04,Wunderground v.1.15,2013-01-27 13:25:00,
2013-01-27 05:30:00,36.0,35.5,30.09,SE,138,2.0,2.0,98,0.00,,,0.05,Wunderground v.1.15,2013-01-27 13:30:00,
2013-01-27 05:35:00,36.0,35.5,30.09,SE,138,2.0,2.0,98,0.00,,,0.05,Wunderground v.1.15,2013-01-27 13:35:00,
2013-01-27 05:40:00,36.0,35.5,30.10,SE,138,1.0,2.0,98,0.00,,,0.05,Wunderground v.1.15,2013-01-27 13:40:00,
2013-01-27 05:45:00,36.1,35.6,30.10,SE,138,0.0,2.0,98,0.00,,,0.05,Wunderground v.1.15,2013-01-27 13:45:00,
2013-01-27 05:50:00,36.2,35.7,30.10,SE,138,0.0,0.0,98,0.00,,,0.05,Wunderground v.1.15,2013-01-27 13:50:00,
2013-01-27 05:55:00,36.1,35.6,30.10,SE,138,1.0,2.0,98,0.00,,,0.05,Wunderground v.1.15,2013-01-27 13:55:00,
2013-01-27 06:00:00,35.9,35.4,30.10,SE,138,1.0,1.0,98,0.00,,,0.05,Wunderground v.1.15,2013-01-27 14:00:00,
2013-01-27 06:05:00,35.9,35.4,30.10,SE,138,1.0,1.0,98,0.00,,,0.05,Wunderground v.1.15,2013-01-27 14:05:00,
2013-01-27 06:10:00,35.9,35.4,30.10,SE,138,1.0,1.0,98,0.00,,,0.05,Wunderground v.1.15,2013-01-27 14:10:00,
2013-01-27 06:15:00,36.0,35.5,30.10,SE,138,2.0,2.0,98,0.00,,,0.05,Wunderground v.1.15,2013-01-27 14:15:00,
2013-01-27 06:20:00,36.1,35.6,30.10,SE,134,2.0,3.0,98,0.00,,,0.05,Wunderground v.1.15,2013-01-27 14:20:00,
2013-01-27 06:25:00,36.2,35.7,30.10,SE,134,3.0,3.0,98,0.00,,,0.05,Wunderground v.1.15,2013-01-27 14:25:00,
2013-01-27 06:30:00,36.2,35.7,30.10,SE,134,2.0,2.0,98,0.00,,,0.05,Wunderground v.1.15,2013-01-27 14:30:00,
2013-01-27 06:35:00,36.0,35.5,30.10,SE,134,0.0,2.0,98,0.00,,,0.05,Wunderground v.1.15,2013-01-27 14:35:00,
2013-01-27 06:40:00,35.9,35.4,30.10,SSE,163,1.0,2.0,98,0.00,,,0.05,Wunderground v.1.15,2013-01-27 14:40:00,
2013-01-27 06:45:00,35.9,35.4,30.10,SSE,162,2.0,2.0,98,0.00,,,0.05,Wunderground v.1.15,2013-01-27 14:45:00,
2013-01-27 06:50:00,35.8,35.3,30.10,SSE,162,1.0,1.0,98,0.00,,,0.05,Wunderground v.1.15,2013-01-27 14:50:00,
2013-01-27 06:55:00,35.8,35.3,30.10,SSE,162,0.0,1.0,98,0.00,,,0.05,Wunderground v.1.15,2013-01-27 14:55:00,
2013-01-27 07:00:00,35.8,35.3,30.10,SSE,157,1.0,2.0,98,0.00,,,0.05,Wunderground v.1.15,2013-01-27 15:00:00,
2013-01-27 07:05:00,35.7,35.2,30.10,SSE,157,1.0,2.0,98,0.00,,,0.05,Wunderground v.1.15,2013-01-27 15:05:00,
2013-01-27 07:10:00,35.6,35.1,30.10,SSE,157,2.0,2.0,98,0.00,,,0.05,Wunderground v.1.15,2013-01-27 15:10:00,
2013-01-27 07:20:00,35.8,35.3,30.10,SE,132,3.0,4.0,98,0.00,,,0.05,Wunderground v.1.15,2013-01-27 15:20:00,
2013-01-27 07:25:00,35.8,35.3,30.10,SE,131,3.0,4.0,98,0.00,,,0.05,Wunderground v.1.15,2013-01-27 15:25:00,
2013-01-27 07:30:00,35.7,35.2,30.10,SE,131,2.0,3.0,98,0.00,,,0.05,Wunderground v.1.15,2013-01-27 15:30:00,
2013-01-27 07:35:00,35.8,35.3,30.10,SE,131,2.0,3.0,98,0.00,,,0.05,Wunderground v.1.15,2013-01-27 15:35:00,
2013-01-27 07:40:00,35.8,35.3,30.10,SE,131,2.0,2.0,98,0.00,,,0.05,Wunderground v.1.15,2013-01-27 15:40:00,
2013-01-27 07:45:00,35.7,35.2,30.10,SE,131,0.0,2.0,98,0.00,,,0.05,Wunderground v.1.15,2013-01-27 15:45:00,
2013-01-27 07:50:00,35.6,35.1,30.10,SE,131,0.0,1.0,98,0.00,,,0.05,Wunderground v.1.15,2013-01-27 15:50:00,
2013-01-27 07:55:00,35.5,35.0,30.10,SE,131,0.0,1.0,98,0.00,,,0.05,Wunderground v.1.15,2013-01-27 15:55:00,
2013-01-27 08:00:00,35.3,34.8,30.10,SE,131,1.0,1.0,98,0.00,,,0.05,Wunderground v.1.15,2013-01-27 16:00:00,
2013-01-27 08:05:00,35.4,34.9,30.11,SE,131,1.0,1.0,98,0.00,,,0.05,Wunderground v.1.15,2013-01-27 16:05:00,
2013-01-27 08:10:00,35.5,35.0,30.11,SE,128,1.0,1.0,98,0.00,,,0.05,Wunderground v.1.15,2013-01-27 16:10:00,
2013-01-27 08:15:00,35.5,35.0,30.11,SE,128,1.0,1.0,98,0.00,,,0.05,Wunderground v.1.15,2013-01-27 16:15:00,
2013-01-27 08:20:00,35.6,35.1,30.11,SE,128,1.0,1.0,98,0.00,,,0.05,Wunderground v.1.15,2013-01-27 16:20:00,
2013-01-27 08:25:00,35.8,35.3,30.11,SE,128,1.0,1.0,98,0.00,,,0.05,Wunderground v.1.15,2013-01-27 16:25:00,
2013-01-27 08:30:00,36.0,35.5,30.11,SE,128,0.0,1.0,98,0.00,,,0.05,Wunderground v.1.15,2013-01-27 16:30:00,
2013-01-27 08:40:00,36.3,35.8,30.11,SE,128,0.0,0.0,98,0.00,,,0.05,Wunderground v.1.15,2013-01-27 16:40:00,
2013-01-27 08:45:00,36.4,35.9,30.11,SE,128,0.0,0.0,98,0.00,,,0.05,Wunderground v.1.15,2013-01-27 16:45:00,
2013-01-27 08:55:00,36.6,36.1,30.11,SE,128,0.0,0.0,98,0.00,,,0.05,Wunderground v.1.15,2013-01-27 16:55:00,
2013-01-27 09:00:00,36.6,36.1,30.11,SE,128,0.0,0.0,98,0.00,,,0.05,Wunderground v.1.15,2013-01-27 17:00:00,
2013-01-27 09:05:00,36.7,36.2,30.12,SE,128,0.0,0.0,98,0.00,,,0.05,Wunderground v.1.15,2013-01-27 17:05:00,
2013-01-27 09:10:00,36.7,36.2,30.11,SE,128,1.0,2.0,98,0.00,,,0.05,Wunderground v.1.15,2013-01-27 17:10:00,
2013-01-27 09:15:00,36.6,36.1,30.11,SE,128,1.0,2.0,98,0.00,,,0.05,Wunderground v.1.15,2013-01-27 17:15:00,
2013-01-27 09:20:00,36.8,36.3,30.12,SE,128,0.0,0.0,98,0.00,,,0.05,Wunderground v.1.15,2013-01-27 17:20:00,
2013-01-27 09:25:00,36.9,36.4,30.11,SE,128,0.0,0.0,98,0.00,,,0.05,Wunderground v.1.15,2013-01-27 17:25:00,
2013-01-27 09:30:00,36.9,36.4,30.12,SE,128,1.0,3.0,98,0.00,,,0.05,Wunderground v.1.15,2013-01-27 17:30:00,
2013-01-27 09:40:00,37.0,36.5,30.12,SE,133,3.0,4.0,98,0.00,,,0.05,Wunderground v.1.15,2013-01-27 17:40:00,
2013-01-27 09:45:00,36.9,36.4,30.12,SE,144,4.0,4.0,98,0.00,,,0.05,Wunderground v.1.15,2013-01-27 17:45:00,
2013-01-27 09:50:00,36.9,36.1,30.12,SE,144,4.0,4.0,97,0.00,,,0.05,Wunderground v.1.15,2013-01-27 17:50:00,
2013-01-27 09:55:00,37.0,36.2,30.12,SE,144,3.0,4.0,97,0.00,,,0.05,Wunderground v.1.15,2013-01-27 17:55:00,
2013-01-27 10:00:00,37.1,36.3,30.12,SE,144,2.0,2.0,97,0.00,,,0.05,Wunderground v.1.15,2013-01-27 18:00:00,
2013-01-27 10:05:00,37.1,36.3,30.12,SE,144,2.0,2.0,97,0.00,,,0.05,Wunderground v.1.15,2013-01-27 18:05:00,
2013-01-27 10:10:00,37.1,36.3,30.12,SE,144,1.0,1.0,97,0.00,,,0.05,Wunderground v.1.15,2013-01-27 18:10:00,
2013-01-27 10:15:00,37.2,36.4,30.13,SE,144,0.0,1.0,97,0.00,,,0.05,Wunderground v.1.15,2013-01-27 18:15:00,
2013-01-27 10:20:00,37.3,36.5,30.12,SE,144,1.0,2.0,97,0.00,,,0.05,Wunderground v.1.15,2013-01-27 18:20:00,
2013-01-27 10:25:00,37.4,36.6,30.13,SE,144,2.0,2.0,97,0.00,,,0.05,Wunderground v.1.15,2013-01-27 18:25:00,
2013-01-27 10:30:00,37.6,36.8,30.13,SE,144,1.0,1.0,97,0.00,,,0.05,Wunderground v.1.15,2013-01-27 18:30:00,
2013-01-27 10:35:00,37.8,37.3,30.13,SE,144,0.0,1.0,98,0.00,,,0.05,Wunderground v.1.15,2013-01-27 18:35:00,
2013-01-27 10:40:00,38.0,37.2,30.13,SE,144,0.0,2.0,97,0.00,,,0.05,Wunderground v.1.15,2013-01-27 18:40:00,
2013-01-27 10:45:00,38.0,37.2,30.13,SE,144,1.0,2.0,97,0.00,,,0.05,Wunderground v.1.15,2013-01-27 18:45:00,
2013-01-27 10:50:00,38.1,37.3,30.13,SE,144,1.0,1.0,97,0.00,,,0.06,Wunderground v.1.15,2013-01-27 18:50:00,
2013-01-27 10:55:00,38.1,37.3,30.13,SE,144,0.0,1.0,97,0.00,,,0.06,Wunderground v.1.15,2013-01-27 18:55:00,
2013-01-27 11:00:00,38.2,37.4,30.13,SE,144,0.0,1.0,97,0.07,,,0.07,Wunderground v.1.15,2013-01-27 19:00:00,
2013-01-27 11:05:00,38.4,37.6,30.13,SE,144,0.0,1.0,97,0.07,,,0.07,Wunderground v.1.15,2013-01-27 19:05:00,
2013-01-27 11:10:00,38.5,37.7,30.12,SE,144,0.0,0.0,97,0.05,,,0.07,Wunderground v.1.15,2013-01-27 19:10:00,
2013-01-27 11:15:00,38.4,37.6,30.12,SE,144,0.0,0.0,97,0.04,,,0.07,Wunderground v.1.15,2013-01-27 19:15:00,
2013-01-27 11:20:00,38.3,37.3,30.12,SE,144,0.0,0.0,96,0.00,,,0.07,Wunderground v.1.15,2013-01-27 19:20:00,
2013-01-27 11:25:00,38.4,37.6,30.12,SE,144,0.0,0.0,97,0.00,,,0.07,Wunderground v.1.15,2013-01-27 19:25:00,
2013-01-27 11:30:00,38.4,37.6,30.12,SE,144,1.0,1.0,97,0.00,,,0.07,Wunderground v.1.15,2013-01-27 19:30:00,
2013-01-27 11:35:00,38.6,37.8,30.11,SE,143,1.0,1.0,97,0.00,,,0.07,Wunderground v.1.15,2013-01-27 19:35:00,
2013-01-27 11:40:00,38.5,37.5,30.11,SE,143,1.0,1.0,96,0.00,,,0.07,Wunderground v.1.15,2013-01-27 19:40:00,
2013-01-27 11:45:00,38.6,37.8,30.11,SE,143,1.0,1.0,97,0.00,,,0.08,Wunderground v.1.15,2013-01-27 19:45:00,
2013-01-27 11:55:00,38.6,37.6,30.11,SE,143,1.0,4.0,96,0.00,,,0.08,Wunderground v.1.15,2013-01-27 19:55:00,
2013-01-27 12:00:00,38.7,37.7,30.11,SE,143,1.0,1.0,96,0.00,,,0.08,Wunderground v.1.15,2013-01-27 20:00:00,
2013-01-27 12:05:00,38.8,37.8,30.10,SE,143,0.0,1.0,96,0.00,,,0.08,Wunderground v.1.15,2013-01-27 20:05:00,
2013-01-27 12:15:00,39.0,38.0,30.10,ESE,123,0.0,1.0,96,0.00,,,0.08,Wunderground v.1.15,2013-01-27 20:15:00,
2013-01-27 12:20:00,39.0,38.0,30.10,ESE,120,1.0,1.0,96,0.00,,,0.08,Wunderground v.1.15,2013-01-27 20:20:00,
2013-01-27 12:25:00,39.0,38.0,30.09,ESE,120,0.0,1.0,96,0.00,,,0.08,Wunderground v.1.15,2013-01-27 20:25:00,
2013-01-27 12:30:00,38.9,37.9,30.09,ESE,121,0.0,2.0,96,0.00,,,0.08,Wunderground v.1.15,2013-01-27 20:30:00,
2013-01-27 12:35:00,38.8,37.8,30.09,SE,128,1.0,2.0,96,0.00,,,0.08,Wunderground v.1.15,2013-01-27 20:35:00,
2013-01-27 12:40:00,38.8,37.5,30.09,SE,128,1.0,1.0,95,0.00,,,0.08,Wunderground v.1.15,2013-01-27 20:40:00,
2013-01-27 12:45:00,38.8,37.8,30.09,SE,136,0.0,1.0,96,0.00,,,0.08,Wunderground v.1.15,2013-01-27 20:45:00,
2013-01-27 12:50:00,38.7,37.4,30.09,SE,135,1.0,2.0,95,0.00,,,0.08,Wunderground v.1.15,2013-01-27 20:50:00,
2013-01-27 12:55:00,38.6,37.3,30.08,SE,134,1.0,2.0,95,0.00,,,0.09,Wunderground v.1.15,2013-01-27 20:55:00,
2013-01-27 13:00:00,38.6,37.3,30.08,SE,135,1.0,1.0,95,0.00,,,0.09,Wunderground v.1.15,2013-01-27 21:00:00,
2013-01-27 13:10:00,38.8,37.5,30.08,SE,134,1.0,1.0,95,0.07,,,0.10,Wunderground v.1.15,2013-01-27 21:10:00,
2013-01-27 13:15:00,38.7,37.7,30.08,SE,141,1.0,1.0,96,0.05,,,0.10,Wunderground v.1.15,2013-01-27 21:15:00,
2013-01-27 13:20:00,38.9,37.9,30.08,SE,141,0.0,1.0,96,0.00,,,0.10,Wunderground v.1.15,2013-01-27 21:20:00,
2013-01-27 13:25:00,39.1,38.1,30.07,SE,141,1.0,2.0,96,0.00,,,0.11,Wunderground v.1.15,2013-01-27 21:25:00,
2013-01-27 13:30:00,39.2,38.2,30.07,SE,141,1.0,1.0,96,0.00,,,0.11,Wunderground v.1.15,2013-01-27 21:30:00,
2013-01-27 13:35:00,39.2,38.2,30.07,SE,141,0.0,1.0,96,0.00,,,0.11,Wunderground v.1.15,2013-01-27 21:35:00,
2013-01-27 13:40:00,39.1,38.1,30.07,SE,141,0.0,1.0,96,0.00,,,0.11,Wunderground v.1.15,2013-01-27 21:40:00,
2013-01-27 13:45:00,39.1,38.1,30.07,SE,141,1.0,2.0,96,0.00,,,0.11,Wunderground v.1.15,2013-01-27 21:45:00,
2013-01-27 13:50:00,39.1,38.1,30.06,East,85,2.0,2.0,96,0.00,,,0.11,Wunderground v.1.15,2013-01-27 21:50:00,
2013-01-27 13:55:00,39.0,38.0,30.06,East,85,3.0,3.0,96,0.00,,,0.11,Wunderground v.1.15,2013-01-27 21:55:00,
2013-01-27 14:00:00,38.9,37.6,30.06,East,84,2.0,2.0,95,0.00,,,0.11,Wunderground v.1.15,2013-01-27 22:00:00,
2013-01-27 14:05:00,38.8,37.8,30.06,East,84,1.0,2.0,96,0.00,,,0.12,Wunderground v.1.15,2013-01-27 22:05:00,
2013-01-27 14:10:00,38.8,37.8,30.06,East,84,1.0,2.0,96,0.00,,,0.12,Wunderground v.1.15,2013-01-27 22:10:00,
2013-01-27 14:15:00,38.6,37.6,30.06,East,90,2.0,2.0,96,0.00,,,0.12,Wunderground v.1.15,2013-01-27 22:15:00,
2013-01-27 14:20:00,38.5,37.2,30.06,East,90,2.0,2.0,95,0.00,,,0.12,Wunderground v.1.15,2013-01-27 22:20:00,
2013-01-27 14:25:00,38.4,37.4,30.06,East,101,2.0,2.0,96,0.00,,,0.13,Wunderground v.1.15,2013-01-27 22:25:00,
2013-01-27 14:30:00,38.4,37.4,30.06,NE,51,2.0,3.0,96,0.00,,,0.13,Wunderground v.1.15,2013-01-27 22:30:00,
2013-01-27 14:35:00,38.3,37.3,30.06,NE,52,2.0,3.0,96,0.00,,,0.13,Wunderground v.1.15,2013-01-27 22:35:00,
2013-01-27 14:40:00,38.4,37.4,30.06,NE,55,2.0,2.0,96,0.00,,,0.13,Wunderground v.1.15,2013-01-27 22:40:00,
2013-01-27 14:45:00,38.4,37.4,30.06,NE,55,1.0,2.0,96,0.00,,,0.13,Wunderground v.1.15,2013-01-27 22:45:00,
2013-01-27 14:50:00,38.3,37.3,30.06,NE,55,1.0,1.0,96,0.00,,,0.13,Wunderground v.1.15,2013-01-27 22:50:00,
2013-01-27 14:55:00,38.2,37.2,30.06,NE,55,0.0,1.0,96,0.00,,,0.13,Wunderground v.1.15,2013-01-27 22:55:00,
2013-01-27 15:00:00,38.2,37.2,30.06,ENE,59,0.0,0.0,96,0.00,,,0.13,Wunderground v.1.15,2013-01-27 23:00:00,
2013-01-27 15:05:00,38.2,37.2,30.06,ENE,59,0.0,0.0,96,0.00,,,0.14,Wunderground v.1.15,2013-01-27 23:05:00,
2013-01-27 15:10:00,38.3,37.3,30.06,ENE,59,1.0,1.0,96,0.00,,,0.14,Wunderground v.1.15,2013-01-27 23:10:00,
2013-01-27 15:15:00,38.4,37.4,30.06,ENE,60,1.0,3.0,96,0.00,,,0.14,Wunderground v.1.15,2013-01-27 23:15:00,
2013-01-27 15:20:00,38.4,37.4,30.06,ENE,60,1.0,1.0,96,0.04,,,0.15,Wunderground v.1.15,2013-01-27 23:20:00,
2013-01-27 15:25:00,38.4,37.4,30.06,ENE,66,1.0,2.0,96,0.04,,,0.15,Wunderground v.1.15,2013-01-27 23:25:00,
2013-01-27 15:30:00,38.4,37.4,30.06,East,91,1.0,1.0,96,0.04,,,0.15,Wunderground v.1.15,2013-01-27 23:30:00,
2013-01-27 15:35:00,38.2,37.2,30.06,ESE,112,1.0,2.0,96,0.06,,,0.16,Wunderground v.1.15,2013-01-27 23:35:00,
2013-01-27 15:40:00,38.2,37.2,30.06,East,93,2.0,2.0,96,0.08,,,0.17,Wunderground v.1.15,2013-01-27 23:40:00,
2013-01-27 15:50:00,38.1,37.1,30.07,West,278,3.0,4.0,96,0.09,,,0.18,Wunderground v.1.15,2013-01-27 23:50:00,
2013-01-27 15:55:00,38.1,37.1,30.06,SSE,151,3.0,4.0,96,0.07,,,0.19,Wunderground v.1.15,2013-01-27 23:55:00,
2013-01-27 16:00:00,38.3,37.0,30.06,SSE,151,1.0,1.0,95,0.07,,,0.19,Wunderground v.1.15,2013-01-28 00:00:00,
2013-01-27 16:05:00,38.2,36.9,30.06,SSE,151,1.0,1.0,95,0.05,,,0.19,Wunderground v.1.15,2013-01-28 00:05:00,
2013-01-27 16:10:00,38.2,36.9,30.06,SSE,151,0.0,0.0,95,0.05,,,0.20,Wunderground v.1.15,2013-01-28 00:10:00,
2013-01-27 16:15:00,38.2,36.9,30.06,SSE,151,0.0,1.0,95,0.05,,,0.20,Wunderground v.1.15,2013-01-28 00:15:00,
2013-01-27 16:20:00,38.2,37.2,30.06,SSE,151,0.0,0.0,96,0.04,,,0.21,Wunderground v.1.15,2013-01-28 00:20:00,
2013-01-27 16:25:00,38.2,37.2,30.06,SSE,151,0.0,0.0,96,0.04,,,0.21,Wunderground v.1.15,2013-01-28 00:25:00,
2013-01-27 16:30:00,38.1,37.1,30.06,SSE,151,0.0,0.0,96,0.04,,,0.21,Wunderground v.1.15,2013-01-28 00:30:00,
2013-01-27 16:35:00,38.1,37.1,30.06,SE,139,1.0,1.0,96,0.05,,,0.22,Wunderground v.1.15,2013-01-28 00:35:00,
2013-01-27 16:40:00,38.0,37.0,30.06,SE,138,1.0,1.0,96,0.05,,,0.22,Wunderground v.1.15,2013-01-28 00:40:00,
2013-01-27 16:45:00,38.0,37.0,30.06,SE,138,1.0,1.0,96,0.05,,,0.22,Wunderground v.1.15,2013-01-28 00:45:00,
2013-01-27 16:50:00,38.0,37.0,30.05,SE,138,0.0,0.0,96,0.05,,,0.23,Wunderground v.1.15,2013-01-28 00:50:00,
2013-01-27 16:55:00,37.9,36.9,30.05,SE,138,0.0,4.0,96,0.05,,,0.23,Wunderground v.1.15,2013-01-28 00:55:00,
2013-01-27 17:00:00,37.8,36.8,30.05,SSE,147,2.0,4.0,96,0.04,,,0.24,Wunderground v.1.15,2013-01-28 01:00:00,
2013-01-27 17:05:00,37.7,36.7,30.05,SE,137,5.0,6.0,96,0.04,,,0.24,Wunderground v.1.15,2013-01-28 01:05:00,
2013-01-27 17:10:00,37.7,36.7,30.05,SE,143,5.0,5.0,96,0.04,,,0.24,Wunderground v.1.15,2013-01-28 01:10:00,
2013-01-27 17:15:00,37.7,36.7,30.05,ESE,116,5.0,5.0,96,0.05,,,0.25,Wunderground v.1.15,2013-01-28 01:15:00,
2013-01-27 17:20:00,37.7,36.9,30.05,ESE,123,4.0,4.0,97,0.05,,,0.25,Wunderground v.1.15,2013-01-28 01:20:00,
2013-01-27 17:25:00,37.6,36.8,30.05,ESE,119,3.0,4.0,97,0.07,,,0.26,Wunderground v.1.15,2013-01-28 01:25:00,
2013-01-27 17:30:00,37.6,36.8,30.04,SE,126,1.0,3.0,97,0.06,,,0.26,Wunderground v.1.15,2013-01-28 01:30:00,
2013-01-27 17:35:00,37.6,36.8,30.05,SE,145,2.0,6.0,97,0.04,,,0.26,Wunderground v.1.15,2013-01-28 01:35:00,
2013-01-27 17:45:00,37.5,36.7,30.05,SE,132,5.0,5.0,97,0.04,,,0.27,Wunderground v.1.15,2013-01-28 01:45:00,
2013-01-27 17:50:00,37.5,36.7,30.05,SE,132,4.0,5.0,97,0.04,,,0.27,Wunderground v.1.15,2013-01-28 01:50:00,
2013-01-27 17:55:00,37.5,36.7,30.05,ESE,121,5.0,5.0,97,0.04,,,0.28,Wunderground v.1.15,2013-01-28 01:55:00,
2013-01-27 18:00:00,37.4,36.6,30.05,SE,126,5.0,5.0,97,0.04,,,0.28,Wunderground v.1.15,2013-01-28 02:00:00,
2013-01-27 18:05:00,37.3,36.5,30.04,SE,128,4.0,5.0,97,0.07,,,0.29,Wunderground v.1.15,2013-01-28 02:05:00,
2013-01-27 18:10:00,37.3,36.5,30.05,SE,132,4.0,4.0,97,0.06,,,0.29,Wunderground v.1.15,2013-01-28 02:10:00,
2013-01-27 18:15:00,37.3,36.5,30.05,SE,136,4.0,7.0,97,0.05,,,0.30,Wunderground v.1.15,2013-01-28 02:15:00,
2013-01-27 18:20:00,37.3,36.5,30.05,SE,133,5.0,5.0,97,0.05,,,0.30,Wunderground v.1.15,2013-01-28 02:20:00,
2013-01-27 18:25:00,37.3,36.5,30.05,SE,133,4.0,5.0,97,0.05,,,0.30,Wunderground v.1.15,2013-01-28 02:25:00,
2013-01-27 18:30:00,37.2,36.4,30.05,SE,135,2.0,4.0,97,0.04,,,0.30,Wunderground v.1.15,2013-01-28 02:30:00,
2013-01-27 18:35:00,37.2,36.4,30.05,SE,134,3.0,4.0,97,0.00,,,0.31,Wunderground v.1.15,2013-01-28 02:35:00,
2013-01-27 18:40:00,37.2,36.4,30.05,SE,134,2.0,2.0,97,0.00,,,0.31,Wunderground v.1.15,2013-01-28 02:40:00,
2013-01-27 18:45:00,37.2,36.4,30.05,ESE,110,1.0,2.0,97,0.00,,,0.31,Wunderground v.1.15,2013-01-28 02:45:00,
2013-01-27 18:55:00,37.3,36.5,30.05,SE,130,3.0,3.0,97,0.04,,,0.32,Wunderground v.1.15,2013-01-28 02:55:00,
2013-01-27 19:00:00,37.3,36.5,30.04,SE,133,2.0,2.0,97,0.04,,,0.32,Wunderground v.1.15,2013-01-28 03:00:00,
2013-01-27 19:05:00,37.3,36.5,30.04,SE,130,1.0,2.0,97,0.04,,,0.32,Wunderground v.1.15,2013-01-28 03:05:00,
2013-01-27 19:10:00,37.3,36.5,30.04,SE,130,2.0,5.0,97,0.00,,,0.32,Wunderground v.1.15,2013-01-28 03:10:00,
2013-01-27 19:15:00,37.3,36.5,30.05,SE,129,3.0,5.0,97,0.00,,,0.33,Wunderground v.1.15,2013-01-28 03:15:00,
2013-01-27 19:20:00,37.3,36.5,30.04,SE,128,3.0,3.0,97,0.00,,,0.33,Wunderground v.1.15,2013-01-28 03:20:00,
2013-01-27 19:25:00,37.2,36.4,30.05,SE,128,2.0,3.0,97,0.00,,,0.33,Wunderground v.1.15,2013-01-28 03:25:00,
2013-01-27 19:30:00,37.3,36.5,30.05,SE,128,2.0,2.0,97,0.00,,,0.33,Wunderground v.1.15,2013-01-28 03:30:00,
2013-01-27 19:35:00,37.2,36.4,30.05,SE,128,2.0,2.0,97,0.00,,,0.33,Wunderground v.1.15,2013-01-28 03:35:00,
2013-01-27 19:40:00,37.2,36.4,30.05,SE,128,1.0,2.0,97,0.00,,,0.33,Wunderground v.1.15,2013-01-28 03:40:00,
2013-01-27 19:45:00,37.2,36.4,30.05,SE,128,1.0,2.0,97,0.00,,,0.33,Wunderground v.1.15,2013-01-28 03:45:00,
2013-01-27 19:50:00,37.1,36.3,30.05,SE,128,1.0,1.0,97,0.00,,,0.33,Wunderground v.1.15,2013-01-28 03:50:00,
2013-01-27 19:55:00,37.1,36.3,30.05,SE,128,1.0,2.0,97,0.00,,,0.33,Wunderground v.1.15,2013-01-28 03:55:00,
2013-01-27 20:00:00,37.1,36.3,30.05,SE,128,1.0,1.0,97,0.00,,,0.33,Wunderground v.1.15,2013-01-28 04:00:00,
2013-01-27 20:05:00,37.1,36.3,30.05,SE,128,0.0,1.0,97,0.00,,,0.33,Wunderground v.1.15,2013-01-28 04:05:00,
2013-01-27 20:15:00,37.1,36.3,30.05,SE,128,0.0,0.0,97,0.00,,,0.34,Wunderground v.1.15,2013-01-28 04:15:00,
2013-01-27 20:20:00,37.2,36.4,30.06,SE,128,0.0,2.0,97,0.00,,,0.34,Wunderground v.1.15,2013-01-28 04:20:00,
2013-01-27 20:25:00,37.2,36.4,30.06,SE,136,1.0,2.0,97,0.00,,,0.34,Wunderground v.1.15,2013-01-28 04:25:00,
2013-01-27 20:30:00,37.2,36.4,30.06,NNW,329,2.0,3.0,97,0.00,,,0.35,Wunderground v.1.15,2013-01-28 04:30:00,
2013-01-27 20:35:00,37.2,36.4,30.06,NW,323,2.0,3.0,97,0.00,,,0.35,Wunderground v.1.15,2013-01-28 04:35:00,
2013-01-27 20:45:00,37.2,36.4,30.06,SSW,209,1.0,2.0,97,0.00,,,0.35,Wunderground v.1.15,2013-01-28 04:45:00,
2013-01-27 20:50:00,37.2,36.4,30.06,South,178,2.0,2.0,97,0.00,,,0.35,Wunderground v.1.15,2013-01-28 04:50:00,
2013-01-27 20:55:00,37.2,36.4,30.06,South,178,1.0,2.0,97,0.00,,,0.35,Wunderground v.1.15,2013-01-28 04:55:00,
2013-01-27 21:00:00,37.2,36.4,30.06,South,178,0.0,1.0,97,0.00,,,0.35,Wunderground v.1.15,2013-01-28 05:00:00,
2013-01-27 21:05:00,37.2,36.4,30.06,SSE,162,1.0,1.0,97,0.00,,,0.35,Wunderground v.1.15,2013-01-28 05:05:00,
2013-01-27 21:10:00,37.2,36.4,30.06,SSE,162,1.0,1.0,97,0.00,,,0.35,Wunderground v.1.15,2013-01-28 05:10:00,
2013-01-27 21:15:00,37.2,36.4,30.06,SSE,162,0.0,1.0,97,0.00,,,0.35,Wunderground v.1.15,2013-01-28 05:15:00,
2013-01-27 21:20:00,37.2,36.4,30.06,SSE,162,0.0,0.0,97,0.00,,,0.35,Wunderground v.1.15,2013-01-28 05:20:00,
2013-01-27 21:25:00,37.2,36.4,30.06,SSE,162,0.0,0.0,97,0.00,,,0.35,Wunderground v.1.15,2013-01-28 05:25:00,
2013-01-27 21:30:00,37.1,36.3,30.06,SSE,162,0.0,0.0,97,0.00,,,0.35,Wunderground v.1.15,2013-01-28 05:30:00,
2013-01-27 21:35:00,37.1,36.3,30.06,SSE,162,0.0,0.0,97,0.00,,,0.35,Wunderground v.1.15,2013-01-28 05:35:00,
2013-01-27 21:40:00,37.1,36.3,30.07,SSE,162,0.0,0.0,97,0.00,,,0.35,Wunderground v.1.15,2013-01-28 05:40:00,
2013-01-27 21:45:00,37.1,36.3,30.06,SSE,162,0.0,0.0,97,0.00,,,0.35,Wunderground v.1.15,2013-01-28 05:45:00,
2013-01-27 21:50:00,37.1,36.3,30.06,SSE,162,0.0,0.0,97,0.00,,,0.35,Wunderground v.1.15,2013-01-28 05:50:00,
2013-01-27 21:55:00,37.2,36.4,30.06,SSE,155,0.0,2.0,97,0.00,,,0.35,Wunderground v.1.15,2013-01-28 05:55:00,
2013-01-27 22:00:00,37.2,36.4,30.07,SSE,155,0.0,1.0,97,0.00,,,0.35,Wunderground v.1.15,2013-01-28 06:00:00,
2013-01-27 22:05:00,37.2,36.4,30.07,SSE,155,0.0,1.0,97,0.00,,,0.35,Wunderground v.1.15,2013-01-28 06:05:00,
2013-01-27 22:10:00,37.2,36.4,30.07,SSE,155,0.0,1.0,97,0.00,,,0.35,Wunderground v.1.15,2013-01-28 06:10:00,
2013-01-27 22:20:00,37.1,36.3,30.07,SE,142,1.0,1.0,97,0.00,,,0.35,Wunderground v.1.15,2013-01-28 06:20:00,
2013-01-27 22:25:00,37.1,36.3,30.07,SE,142,0.0,1.0,97,0.00,,,0.35,Wunderground v.1.15,2013-01-28 06:25:00,
2013-01-27 22:30:00,37.0,36.2,30.07,SE,142,0.0,0.0,97,0.00,,,0.35,Wunderground v.1.15,2013-01-28 06:30:00,
2013-01-27 22:35:00,37.0,36.2,30.07,SE,142,0.0,0.0,97,0.00,,,0.35,Wunderground v.1.15,2013-01-28 06:35:00,
2013-01-27 22:40:00,37.0,36.2,30.07,SE,142,0.0,0.0,97,0.00,,,0.35,Wunderground v.1.15,2013-01-28 06:40:00,
2013-01-27 22:45:00,36.9,36.1,30.07,ESE,120,0.0,2.0,97,0.00,,,0.36,Wunderground v.1.15,2013-01-28 06:45:00,
2013-01-27 22:50:00,36.9,36.1,30.07,East,82,1.0,3.0,97,0.00,,,0.36,Wunderground v.1.15,2013-01-28 06:50:00,
2013-01-27 23:00:00,36.8,36.3,30.07,ENE,73,1.0,1.0,98,0.00,,,0.36,Wunderground v.1.15,2013-01-28 07:00:00,
2013-01-27 23:05:00,36.9,36.4,30.07,ENE,68,0.0,1.0,98,0.00,,,0.36,Wunderground v.1.15,2013-01-28 07:05:00,
2013-01-27 23:10:00,37.0,36.5,30.07,NE,38,1.0,1.0,98,0.00,,,0.36,Wunderground v.1.15,2013-01-28 07:10:00,
2013-01-27 23:15:00,37.1,36.6,30.07,NE,38,1.0,1.0,98,0.00,,,0.36,Wunderground v.1.15,2013-01-28 07:15:00,
2013-01-27 23:20:00,37.4,36.9,30.08,North,350,1.0,1.0,98,0.00,,,0.36,Wunderground v.1.15,2013-01-28 07:20:00,
2013-01-27 23:25:00,37.6,37.1,30.08,NW,315,2.0,2.0,98,0.00,,,0.36,Wunderground v.1.15,2013-01-28 07:25:00,
2013-01-27 23:30:00,37.8,37.3,30.08,North,5,2.0,2.0,98,0.00,,,0.36,Wunderground v.1.15,2013-01-28 07:30:00,
2013-01-27 23:35:00,37.8,37.3,30.08,NNE,19,2.0,2.0,98,0.00,,,0.36,Wunderground v.1.15,2013-01-28 07:35:00,
2013-01-27 23:40:00,38.2,37.7,30.08,North,5,1.0,3.0,98,0.00,,,0.36,Wunderground v.1.15,2013-01-28 07:40:00,
2013-01-27 23:50:00,39.5,39.0,30.08,West,281,5.0,5.0,98,0.00,,,0.36,Wunderground v.1.15,2013-01-28 07:50:00,
2013-01-27 23:55:00,40.0,39.5,30.08,West,269,5.0,8.0,98,0.00,,,0.36,Wunderground v.1.15,2013-01-28 07:55:00,